RKSO/OSN METAR and TAF weather

Enter ICAO airport designator
Station Type Date Time Source
RKSO METAR 2021/09/16 20:58 UTC NOAA

RKSO 162058Z 07005KT 10SM OVC070 20/19 A2978 RMK AO2A SLP087 60004 56004 TSNO $


Station Type Date Time Source
RKSO Decoded METAR 2021/09/16 20:58 UTC NOAA

Osan Ab, Korea, South (RKSO) 37-06N 127-02E 12M
Sep 16, 2021 - 04:58 PM EDT / 2021.09.16 2058 UTC
Wind: from the ENE (070 degrees) at 6 MPH (5 KT):0
Visibility: 10 mile(s):0
Sky conditions: overcast
Temperature: 68 F (20 C)
Dew Point: 66 F (19 C)
Relative Humidity: 93%
Pressure (altimeter): 29.78 in. Hg (1008 hPa)
Pressure tendency: 0.01 inches (0.4 hPa) lower than three hours ago
ob: RKSO 162058Z 07005KT 10SM OVC070 20/19 A2978 RMK AO2A SLP087 60004 56004 TSNO
cycle: 21

Station Type Date Time Source
RKSO TAF 2021/09/16 21:06 UTC NOAA

TAF TAF RKSO 162100Z 1621/1803 09009KT 9999 VCSH BKN035 OVC140 QNH2973INS
TEMPO 1623/1701 09012KT 8000 -SHRA
BECMG 1704/1705 09012G18KT 9999 NSW FEW030 QNH2972INS
BECMG 1708/1709 09009KT 9999 BKN060 QNH2975INS
BECMG 1716/1717 VRB06KT 9999 SCT040 QNH2985INS
BECMG 1800/1801 07009KT 9999 FEW040 QNH2994INS TX23/1705Z TN18/1719Z

Example: see airport list